Time;durP1;ratioP1;P1;durP2;ratioP2;P2;SDS_P1;SDS_P2;PMS_P1;PMS_P2;Temp;Humidity;BMP_temperature;BMP_pressure;BME280_temperature;BME280_humidity;BME280_pressure;Samples;Min_cycle;Max_cycle;Signal;HPM_P1;HPM_P2
2022/09/11 00:01:34;;;;;;;1.95;1.17;;;13.90;99.90;;;;;;4983111;28;20042;-88
2022/09/11 00:04:05;;;;;;;3.53;1.08;;;13.90;99.90;;;;;;4982624;28;20034;-86
2022/09/11 00:06:31;;;;;;;2.20;1.20;;;13.90;99.90;;;;;;4983059;28;20050;-86
2022/09/11 00:08:59;;;;;;;3.75;1.20;;;13.90;99.90;;;;;;4983420;28;20037;-86
2022/09/11 00:11:28;;;;;;;1.23;1.08;;;14.00;99.90;;;;;;4982932;28;20026;-87
2022/09/11 00:13:55;;;;;;;2.45;0.95;;;14.00;99.90;;;;;;4980922;28;20025;-87
2022/09/11 00:16:30;;;;;;;1.55;0.85;;;13.90;99.90;;;;;;4979098;28;20035;-87
2022/09/11 00:18:59;;;;;;;1.20;0.90;;;13.90;99.90;;;;;;4979814;28;20065;-87
2022/09/11 00:21:26;;;;;;;2.55;1.17;;;13.90;99.90;;;;;;4981079;28;20037;-88
2022/09/11 00:23:52;;;;;;;1.35;1.20;;;13.80;99.90;;;;;;5000713;28;20037;-87
2022/09/11 00:26:18;;;;;;;1.30;1.20;;;13.80;99.90;;;;;;4977941;28;20487;-87
2022/09/11 00:28:44;;;;;;;1.13;0.88;;;13.80;99.90;;;;;;4980681;28;20022;-87
2022/09/11 00:31:14;;;;;;;0.90;0.90;;;13.80;99.90;;;;;;4981950;28;20041;-87
2022/09/11 00:33:40;;;;;;;0.95;0.95;;;13.80;99.90;;;;;;4978639;28;20030;-86
2022/09/11 00:36:11;;;;;;;0.90;0.90;;;13.90;99.90;;;;;;4980799;28;20026;-86
2022/09/11 00:38:37;;;;;;;1.52;1.00;;;13.90;99.90;;;;;;4999898;28;20648;-87
2022/09/11 00:41:07;;;;;;;2.45;1.00;;;13.90;99.90;;;;;;4986543;28;20337;-87
2022/09/11 00:43:56;;;;;;;3.42;1.10;;;14.00;99.90;;;;;;4981361;28;20030;-87
2022/09/11 00:46:44;;;;;;;3.38;1.00;;;13.90;99.90;;;;;;4977078;28;20034;-86
2022/09/11 00:49:15;;;;;;;0.88;0.88;;;13.80;99.90;;;;;;4983428;28;20026;-87
2022/09/11 00:51:44;;;;;;;0.80;0.80;;;13.80;99.90;;;;;;4984927;28;20105;-87
2022/09/11 00:54:12;;;;;;;1.35;0.82;;;13.80;99.90;;;;;;4982530;28;20027;-88
2022/09/11 00:56:41;;;;;;;2.70;1.05;;;13.80;99.90;;;;;;4998155;28;20053;-87
2022/09/11 00:59:07;;;;;;;1.65;0.93;;;13.80;99.90;;;;;;4983700;28;20018;-87
2022/09/11 01:01:33;;;;;;;2.15;1.25;;;13.80;99.90;;;;;;4981394;28;20388;-87
2022/09/11 01:04:03;;;;;;;1.65;1.00;;;13.90;99.90;;;;;;4979232;28;20045;-87
2022/09/11 01:06:29;;;;;;;1.00;1.00;;;13.90;99.90;;;;;;4979263;28;20169;-87
2022/09/11 01:08:54;;;;;;;2.35;1.10;;;13.90;99.90;;;;;;4981016;28;20037;-87
2022/09/11 01:11:30;;;;;;;1.63;1.02;;;13.90;99.90;;;;;;4984995;28;20030;-87
2022/09/11 01:14:14;;;;;;;2.15;1.00;;;14.00;99.90;;;;;;4978974;28;20033;-86
2022/09/11 01:16:44;;;;;;;1.58;1.10;;;14.00;99.90;;;;;;4981398;28;20027;-88
2022/09/11 01:19:36;;;;;;;2.67;1.30;;;13.90;99.90;;;;;;4976687;28;20381;-86
2022/09/11 01:22:32;;;;;;;1.08;1.02;;;13.90;99.90;;;;;;4997578;28;20038;-87
2022/09/11 01:25:26;;;;;;;0.90;0.88;;;13.90;99.90;;;;;;4976226;28;20030;-87
2022/09/11 01:27:54;;;;;;;1.33;1.00;;;13.90;99.90;;;;;;4979175;28;20117;-87
2022/09/11 01:30:29;;;;;;;2.20;1.15;;;13.90;99.90;;;;;;4977176;28;20026;-87
2022/09/11 01:33:13;;;;;;;1.02;0.90;;;13.90;99.90;;;;;;4993704;28;20090;-87
2022/09/11 01:35:46;;;;;;;1.13;1.00;;;13.80;99.90;;;;;;4992352;28;20081;-87
2022/09/11 01:38:21;;;;;;;4.38;1.17;;;13.90;99.90;;;;;;5008600;28;20085;-87
2022/09/11 01:40:47;;;;;;;1.83;1.08;;;13.90;99.90;;;;;;4978236;28;20160;-87
2022/09/11 01:43:21;;;;;;;1.10;1.00;;;13.80;99.90;;;;;;4975478;28;20022;-87
2022/09/11 01:45:49;;;;;;;1.85;1.00;;;13.80;99.90;;;;;;4981807;28;20093;-88
2022/09/11 01:48:19;;;;;;;1.55;1.20;;;13.80;99.90;;;;;;4977112;28;20034;-87
2022/09/11 01:50:48;;;;;;;1.10;1.10;;;13.80;99.90;;;;;;4994300;28;20027;-87
2022/09/11 01:53:18;;;;;;;1.15;1.05;;;13.80;99.90;;;;;;4976432;28;20057;-87
2022/09/11 01:56:03;;;;;;;1.65;1.20;;;13.80;99.90;;;;;;4977320;28;20027;-87
2022/09/11 01:58:31;;;;;;;1.63;1.13;;;13.80;99.90;;;;;;4981341;28;20137;-86
2022/09/11 02:01:26;;;;;;;3.80;1.27;;;13.80;99.90;;;;;;4978452;28;20077;-86
2022/09/11 02:04:10;;;;;;;1.05;0.90;;;13.80;99.90;;;;;;4987234;28;20035;-86
2022/09/11 02:07:02;;;;;;;2.47;1.20;;;13.80;99.90;;;;;;5003102;28;20109;-85
2022/09/11 02:09:34;;;;;;;0.95;0.90;;;13.80;99.90;;;;;;4984419;28;20068;-86
2022/09/11 02:12:06;;;;;;;2.67;1.00;;;13.80;99.90;;;;;;4984447;28;20439;-86
2022/09/11 02:14:47;;;;;;;1.38;1.10;;;13.80;99.90;;;;;;4994744;28;20074;-87
2022/09/11 02:17:13;;;;;;;1.48;1.38;;;13.80;99.90;;;;;;5002430;28;20021;-87
2022/09/11 02:19:39;;;;;;;1.83;1.20;;;13.80;99.90;;;;;;5001837;28;20043;-87
2022/09/11 02:22:06;;;;;;;1.10;1.00;;;13.80;99.90;;;;;;4999484;28;20065;-87
2022/09/11 02:24:32;;;;;;;1.55;1.13;;;13.80;99.90;;;;;;4997650;28;20058;-86
2022/09/11 02:27:02;;;;;;;1.20;1.10;;;13.80;99.90;;;;;;4985525;28;20042;-86
2022/09/11 02:29:28;;;;;;;0.85;0.80;;;13.90;99.90;;;;;;5003856;28;20026;-87
2022/09/11 02:31:54;;;;;;;1.10;1.10;;;13.80;99.90;;;;;;5003175;28;20040;-86
2022/09/11 02:34:28;;;;;;;1.60;1.13;;;13.80;99.90;;;;;;4981929;28;20023;-86
2022/09/11 02:37:17;;;;;;;0.80;0.80;;;13.80;99.90;;;;;;4984351;28;20483;-86
2022/09/11 02:39:49;;;;;;;1.20;1.10;;;13.80;99.90;;;;;;5003144;28;20034;-86
2022/09/11 02:42:44;;;;;;;1.17;1.00;;;13.70;99.90;;;;;;4987906;28;20023;-85
2022/09/11 02:45:28;;;;;;;1.50;1.08;;;13.70;99.90;;;;;;4984232;28;20113;-86
2022/09/11 02:48:29;;;;;;;1.52;1.20;;;13.70;99.90;;;;;;5020229;28;20019;-86
2022/09/11 02:51:18;;;;;;;2.05;1.15;;;13.70;99.90;;;;;;5011030;28;20134;-87
2022/09/11 02:53:47;;;;;;;2.47;1.27;;;13.70;99.90;;;;;;4981242;28;20034;-86
2022/09/11 02:56:30;;;;;;;2.35;1.30;;;13.70;99.90;;;;;;5002578;28;20046;-86
2022/09/11 02:59:01;;;;;;;1.10;1.00;;;13.70;99.90;;;;;;4987767;28;20038;-86
2022/09/11 03:01:27;;;;;;;2.75;1.20;;;13.70;99.90;;;;;;4988151;28;20026;-87
2022/09/11 03:03:53;;;;;;;2.45;1.27;;;13.60;99.90;;;;;;4984078;28;20107;-87
2022/09/11 03:06:21;;;;;;;2.53;1.10;;;13.60;99.90;;;;;;4987410;28;20133;-86
2022/09/11 03:08:47;;;;;;;2.20;1.15;;;13.60;99.90;;;;;;4986653;28;20685;-87
2022/09/11 03:11:14;;;;;;;1.83;1.00;;;13.60;99.90;;;;;;4984826;28;20149;-87
2022/09/11 03:13:40;;;;;;;2.03;1.23;;;13.60;99.90;;;;;;4986573;28;20029;-86
2022/09/11 03:16:06;;;;;;;3.63;1.30;;;13.60;99.90;;;;;;4985610;28;20026;-85
2022/09/11 03:18:32;;;;;;;1.38;1.10;;;13.70;99.90;;;;;;4986179;28;20029;-85
2022/09/11 03:20:59;;;;;;;1.75;1.00;;;13.70;99.90;;;;;;4978863;28;20034;-86
2022/09/11 03:23:26;;;;;;;2.35;1.30;;;13.60;99.90;;;;;;4978267;28;20057;-86
2022/09/11 03:25:53;;;;;;;1.65;1.30;;;13.70;99.90;;;;;;4979910;28;20054;-86
2022/09/11 03:28:21;;;;;;;3.25;1.30;;;13.70;99.90;;;;;;4985835;28;20030;-86
2022/09/11 03:30:49;;;;;;;1.33;1.30;;;13.70;99.90;;;;;;4979747;28;20030;-86
2022/09/11 03:33:18;;;;;;;3.35;1.30;;;13.70;99.90;;;;;;4979049;28;20125;-87
2022/09/11 03:35:44;;;;;;;1.35;1.25;;;13.70;99.90;;;;;;4979110;28;20030;-86
2022/09/11 03:38:10;;;;;;;1.83;1.17;;;13.70;99.90;;;;;;4983526;28;20022;-86
2022/09/11 03:40:36;;;;;;;3.75;0.95;;;13.70;99.90;;;;;;4975978;28;20061;-87
2022/09/11 03:43:02;;;;;;;1.33;1.23;;;13.70;99.90;;;;;;4981884;28;20101;-86
2022/09/11 03:45:28;;;;;;;1.42;1.33;;;13.70;99.90;;;;;;4976591;28;20117;-86
2022/09/11 03:47:54;;;;;;;6.35;1.40;;;13.70;99.90;;;;;;4979290;28;20019;-87
2022/09/11 03:50:20;;;;;;;2.63;1.30;;;13.70;99.90;;;;;;4991247;28;20030;-86
2022/09/11 03:52:45;;;;;;;2.15;1.13;;;13.70;99.90;;;;;;4979897;28;20033;-86
2022/09/11 03:55:11;;;;;;;3.65;1.40;;;13.60;99.90;;;;;;4985408;28;20033;-86
2022/09/11 03:57:37;;;;;;;1.40;1.30;;;13.70;99.90;;;;;;4981885;28;21224;-87
2022/09/11 04:00:05;;;;;;;2.45;1.05;;;13.70;99.90;;;;;;4987467;28;20058;-86
2022/09/11 04:02:30;;;;;;;1.30;1.20;;;13.70;99.90;;;;;;4981172;28;20022;-86
2022/09/11 04:04:56;;;;;;;2.63;1.30;;;13.60;99.90;;;;;;4983555;28;20034;-87
2022/09/11 04:07:22;;;;;;;2.42;1.40;;;13.60;99.90;;;;;;4983550;28;20045;-86
2022/09/11 04:09:48;;;;;;;2.13;1.23;;;13.50;99.90;;;;;;4995338;28;20506;-86
2022/09/11 04:12:15;;;;;;;1.20;1.20;;;13.50;99.90;;;;;;4982871;28;20042;-86
2022/09/11 04:14:40;;;;;;;1.73;1.38;;;13.60;99.90;;;;;;4981614;28;20030;-86
2022/09/11 04:17:07;;;;;;;1.38;1.00;;;13.60;99.90;;;;;;4998823;28;20109;-86
2022/09/11 04:19:36;;;;;;;2.30;1.20;;;13.60;99.90;;;;;;4981596;28;20033;-86
2022/09/11 04:22:02;;;;;;;1.38;1.30;;;13.60;99.90;;;;;;4982740;28;20089;-86
2022/09/11 04:24:28;;;;;;;1.42;1.20;;;13.60;99.90;;;;;;4978553;28;20037;-86
2022/09/11 04:26:54;;;;;;;3.03;1.38;;;13.50;99.90;;;;;;4981741;28;20030;-85
2022/09/11 04:29:21;;;;;;;1.30;1.20;;;13.60;99.90;;;;;;4984906;28;20433;-85
2022/09/11 04:31:47;;;;;;;2.15;1.63;;;13.60;99.90;;;;;;4982007;28;20435;-86
2022/09/11 04:34:15;;;;;;;2.58;1.40;;;13.50;99.90;;;;;;4985310;28;20026;-86
2022/09/11 04:36:41;;;;;;;1.80;1.00;;;13.50;99.90;;;;;;4974857;28;20028;-86
2022/09/11 04:39:08;;;;;;;1.52;1.13;;;13.50;99.90;;;;;;5003361;28;20041;-87
2022/09/11 04:41:34;;;;;;;4.47;1.50;;;13.60;99.90;;;;;;4981281;28;20030;-86
2022/09/11 04:44:00;;;;;;;2.13;1.35;;;13.60;99.90;;;;;;4980797;28;20490;-86
2022/09/11 04:46:26;;;;;;;2.42;1.40;;;13.60;99.90;;;;;;4981140;28;20027;-86
2022/09/11 04:48:54;;;;;;;1.10;1.05;;;13.60;99.90;;;;;;4979185;28;20026;-86
2022/09/11 04:51:31;;;;;;;2.83;1.40;;;13.60;99.90;;;;;;4983246;28;20034;-86
2022/09/11 04:53:58;;;;;;;1.35;1.25;;;13.60;99.90;;;;;;4981200;28;20581;-87
2022/09/11 04:56:27;;;;;;;1.90;1.30;;;13.60;99.90;;;;;;4979341;28;20120;-87
2022/09/11 04:58:56;;;;;;;1.73;1.48;;;13.60;99.90;;;;;;4982359;28;20027;-87
2022/09/11 05:01:23;;;;;;;1.52;1.20;;;13.60;99.90;;;;;;4980440;28;20045;-87
2022/09/11 05:03:49;;;;;;;1.30;1.20;;;13.60;99.90;;;;;;4992524;28;20037;-87
2022/09/11 05:06:15;;;;;;;1.80;1.67;;;13.60;99.90;;;;;;4978341;28;20042;-86
2022/09/11 05:08:43;;;;;;;1.15;1.05;;;13.60;99.90;;;;;;4979105;28;20026;-85
2022/09/11 05:11:12;;;;;;;3.72;1.33;;;13.50;99.90;;;;;;4978808;28;20058;-86
2022/09/11 05:13:38;;;;;;;3.13;1.10;;;13.60;99.90;;;;;;4981957;28;20078;-86
2022/09/11 05:16:08;;;;;;;1.02;0.95;;;13.60;99.90;;;;;;4977441;28;20070;-86
2022/09/11 05:18:34;;;;;;;2.90;1.33;;;13.60;99.90;;;;;;4979400;28;20049;-87
2022/09/11 05:21:01;;;;;;;2.30;1.30;;;13.60;99.90;;;;;;4983558;28;20064;-86
2022/09/11 05:23:27;;;;;;;3.83;1.45;;;13.60;99.90;;;;;;4980422;28;20487;-87
2022/09/11 05:26:01;;;;;;;2.22;1.48;;;13.60;99.90;;;;;;4978693;28;20022;-86
2022/09/11 05:28:28;;;;;;;1.77;1.50;;;13.60;99.90;;;;;;4999686;28;20053;-86
2022/09/11 05:30:55;;;;;;;1.40;1.25;;;13.70;99.90;;;;;;4984289;28;20114;-87
2022/09/11 05:33:26;;;;;;;1.58;1.30;;;13.60;99.90;;;;;;4982318;28;20038;-86
2022/09/11 05:35:53;;;;;;;1.30;1.20;;;13.70;99.90;;;;;;4980015;28;20018;-86
2022/09/11 05:38:22;;;;;;;1.15;1.10;;;13.70;99.90;;;;;;4983180;28;20153;-86
2022/09/11 05:40:50;;;;;;;1.73;1.20;;;13.60;99.90;;;;;;4981241;28;20873;-86
2022/09/11 05:43:18;;;;;;;3.45;1.42;;;13.60;99.90;;;;;;4989564;28;20471;-86
2022/09/11 05:45:52;;;;;;;3.45;1.40;;;13.70;99.90;;;;;;4988533;28;20608;-85
2022/09/11 05:48:18;;;;;;;1.27;1.17;;;13.70;99.90;;;;;;4998410;28;20058;-85
2022/09/11 05:50:51;;;;;;;2.38;1.27;;;13.70;99.90;;;;;;4980692;28;20042;-86
2022/09/11 05:53:17;;;;;;;1.20;1.15;;;13.70;99.90;;;;;;4992368;28;20048;-85
2022/09/11 05:55:43;;;;;;;1.25;1.17;;;13.70;99.90;;;;;;4985066;28;20102;-85
2022/09/11 05:58:08;;;;;;;1.35;1.25;;;13.70;99.90;;;;;;4982444;28;20081;-85
2022/09/11 06:00:35;;;;;;;1.27;1.10;;;13.80;99.90;;;;;;4995059;28;20027;-86
2022/09/11 06:03:01;;;;;;;4.45;1.40;;;13.70;99.90;;;;;;4985401;28;20022;-85
2022/09/11 06:05:27;;;;;;;1.17;1.17;;;13.70;99.90;;;;;;5003104;28;20120;-86
2022/09/11 06:07:53;;;;;;;2.22;1.40;;;13.80;99.90;;;;;;4984347;28;20039;-85
2022/09/11 06:10:18;;;;;;;1.23;1.10;;;13.70;99.90;;;;;;4989536;28;20034;-85
2022/09/11 06:12:44;;;;;;;1.63;1.25;;;13.80;99.90;;;;;;4988141;28;20037;-85
2022/09/11 06:15:10;;;;;;;1.83;1.17;;;13.80;99.90;;;;;;4983093;28;20418;-85
2022/09/11 06:17:36;;;;;;;1.20;1.20;;;13.80;99.90;;;;;;4986494;28;20023;-85
2022/09/11 06:20:02;;;;;;;2.13;1.27;;;13.80;99.90;;;;;;4984474;28;20084;-86
2022/09/11 06:22:28;;;;;;;1.40;1.27;;;13.80;99.90;;;;;;4985132;28;20053;-85
2022/09/11 06:24:54;;;;;;;3.83;1.30;;;13.80;99.90;;;;;;4989186;28;20022;-85
2022/09/11 06:27:20;;;;;;;4.25;1.40;;;13.90;99.90;;;;;;4985329;28;20388;-85
2022/09/11 06:29:45;;;;;;;1.55;1.30;;;13.90;99.90;;;;;;4985799;28;20429;-85
2022/09/11 06:32:11;;;;;;;1.05;1.02;;;13.90;99.90;;;;;;4982100;28;20027;-85
2022/09/11 06:34:36;;;;;;;1.95;1.27;;;13.80;99.90;;;;;;4979893;28;20037;-86
2022/09/11 06:37:03;;;;;;;1.52;1.40;;;13.90;99.90;;;;;;4985969;28;20109;-85
2022/09/11 06:39:28;;;;;;;1.15;1.05;;;13.80;99.90;;;;;;4982034;28;20037;-85
2022/09/11 06:41:54;;;;;;;2.45;1.30;;;13.80;99.90;;;;;;4988905;28;20153;-85
2022/09/11 06:44:19;;;;;;;3.28;1.40;;;13.90;99.90;;;;;;4984033;28;20018;-85
2022/09/11 06:46:46;;;;;;;2.95;1.40;;;13.80;99.90;;;;;;4987076;28;20488;-86
2022/09/11 06:49:23;;;;;;;1.50;1.40;;;13.90;99.90;;;;;;4983299;28;20018;-84
2022/09/11 06:51:51;;;;;;;3.35;1.55;;;13.90;99.90;;;;;;4979517;28;20062;-85
2022/09/11 06:54:17;;;;;;;1.90;1.30;;;13.90;99.90;;;;;;4990339;28;20061;-85
2022/09/11 06:56:44;;;;;;;2.47;1.35;;;14.00;99.90;;;;;;4984701;28;20026;-85
2022/09/11 06:59:09;;;;;;;1.33;1.20;;;13.90;99.90;;;;;;4985450;28;22028;-86
2022/09/11 07:01:35;;;;;;;1.65;1.45;;;13.90;99.90;;;;;;4986778;28;20132;-85
2022/09/11 07:04:01;;;;;;;1.67;1.30;;;14.00;99.90;;;;;;4996595;28;20034;-86
2022/09/11 07:06:29;;;;;;;1.40;1.30;;;14.00;99.90;;;;;;4981906;28;20046;-86
2022/09/11 07:09:01;;;;;;;2.57;1.40;;;14.00;99.90;;;;;;4986661;28;20034;-87
2022/09/11 07:11:28;;;;;;;1.60;1.50;;;14.00;99.90;;;;;;4982438;28;20038;-86
2022/09/11 07:13:54;;;;;;;2.55;1.40;;;14.10;99.90;;;;;;4986008;28;20384;-85
2022/09/11 07:16:19;;;;;;;2.03;1.27;;;14.10;99.90;;;;;;4990636;28;20029;-85
2022/09/11 07:18:46;;;;;;;2.50;1.67;;;14.10;99.90;;;;;;4981800;28;20171;-86
2022/09/11 07:21:18;;;;;;;1.55;1.42;;;14.10;99.90;;;;;;4984122;28;20096;-85
2022/09/11 07:23:48;;;;;;;2.22;1.45;;;14.10;99.90;;;;;;4987415;28;20044;-86
2022/09/11 07:26:15;;;;;;;1.75;1.40;;;14.10;99.90;;;;;;4983599;28;20026;-85
2022/09/11 07:28:40;;;;;;;2.60;1.67;;;14.20;99.90;;;;;;4981964;28;20363;-86
2022/09/11 07:31:11;;;;;;;1.80;1.45;;;14.20;99.90;;;;;;4983441;28;20062;-85
2022/09/11 07:33:38;;;;;;;1.50;1.40;;;14.30;99.90;;;;;;4988108;28;20027;-86
2022/09/11 07:36:10;;;;;;;2.17;1.70;;;14.30;99.90;;;;;;4998142;28;20085;-86
2022/09/11 07:38:38;;;;;;;1.90;1.40;;;14.30;99.90;;;;;;5005035;28;20045;-85
2022/09/11 07:41:03;;;;;;;2.90;1.63;;;14.30;99.90;;;;;;4988965;28;20045;-85
2022/09/11 07:43:30;;;;;;;5.82;1.73;;;14.30;99.90;;;;;;4989209;28;20026;-86
2022/09/11 07:45:55;;;;;;;2.30;1.50;;;14.30;99.90;;;;;;4983035;28;20049;-86
2022/09/11 07:48:21;;;;;;;3.33;1.90;;;14.30;99.90;;;;;;4978385;28;21663;-86
2022/09/11 07:51:02;;;;;;;2.90;1.80;;;14.30;99.90;;;;;;4993006;28;20025;-86
2022/09/11 07:53:35;;;;;;;2.88;2.05;;;14.30;99.90;;;;;;4983689;28;20030;-85
2022/09/11 07:56:05;;;;;;;2.70;1.70;;;14.40;99.90;;;;;;4980851;28;20094;-86
2022/09/11 07:58:32;;;;;;;2.88;1.80;;;14.40;99.90;;;;;;4984081;28;20026;-86
2022/09/11 08:00:59;;;;;;;2.17;1.97;;;14.50;99.90;;;;;;4979422;28;20046;-84
2022/09/11 08:03:24;;;;;;;3.58;1.73;;;14.50;99.90;;;;;;4999929;28;20030;-85
2022/09/11 08:05:50;;;;;;;3.60;2.35;;;14.50;99.90;;;;;;4986525;28;20030;-86
2022/09/11 08:08:15;;;;;;;2.75;2.03;;;14.50;99.90;;;;;;4987737;28;20070;-87
2022/09/11 08:10:41;;;;;;;2.20;2.00;;;14.50;99.90;;;;;;4985638;28;20049;-85
2022/09/11 08:13:08;;;;;;;2.60;1.58;;;14.50;99.90;;;;;;4985524;28;20033;-85
2022/09/11 08:15:34;;;;;;;3.08;2.13;;;14.50;99.90;;;;;;4986844;28;20022;-85
2022/09/11 08:17:59;;;;;;;2.30;2.00;;;14.60;99.90;;;;;;4982388;28;20092;-86
2022/09/11 08:20:25;;;;;;;2.83;2.08;;;14.70;99.90;;;;;;4979112;28;20129;-86
2022/09/11 08:22:51;;;;;;;3.85;2.38;;;14.80;99.90;;;;;;4985079;28;20091;-86
2022/09/11 08:25:17;;;;;;;4.05;2.40;;;14.90;99.90;;;;;;4981034;28;20094;-86
2022/09/11 08:27:42;;;;;;;5.13;2.95;;;14.90;99.90;;;;;;4982406;28;20030;-86
2022/09/11 08:30:09;;;;;;;3.38;3.00;;;15.00;99.90;;;;;;4978232;28;20859;-86
2022/09/11 08:32:34;;;;;;;5.20;2.83;;;15.00;99.90;;;;;;4984140;28;20042;-86
2022/09/11 08:35:00;;;;;;;4.60;2.75;;;15.10;99.90;;;;;;4988579;28;20037;-86
2022/09/11 08:37:26;;;;;;;3.58;2.45;;;15.20;99.90;;;;;;4987689;28;20041;-86
2022/09/11 08:39:51;;;;;;;3.75;2.47;;;15.20;99.90;;;;;;4989794;28;20033;-85
2022/09/11 08:42:18;;;;;;;3.28;2.78;;;15.10;99.90;;;;;;4987739;28;20034;-85
2022/09/11 08:44:51;;;;;;;3.85;2.97;;;15.10;99.90;;;;;;4984999;28;20015;-85
2022/09/11 08:47:32;;;;;;;4.57;2.92;;;15.20;99.90;;;;;;4983817;28;20023;-86
2022/09/11 08:50:24;;;;;;;3.45;2.72;;;15.30;99.90;;;;;;4983555;28;20054;-86
2022/09/11 08:52:51;;;;;;;4.75;3.38;;;15.30;99.90;;;;;;4982577;28;20037;-87
2022/09/11 08:55:28;;;;;;;4.78;3.30;;;15.40;99.90;;;;;;4977122;28;20483;-86
2022/09/11 08:58:17;;;;;;;4.72;2.90;;;15.30;99.90;;;;;;4994023;28;20034;-86
2022/09/11 09:00:46;;;;;;;2.50;2.22;;;15.40;99.90;;;;;;4995573;28;20034;-86
2022/09/11 09:03:37;;;;;;;3.60;3.30;;;15.50;99.90;;;;;;4979133;28;21459;-86
2022/09/11 09:06:30;;;;;;;5.13;2.90;;;15.50;99.90;;;;;;4988232;28;20035;-86
2022/09/11 09:09:11;;;;;;;5.05;3.72;;;15.50;99.90;;;;;;4995686;28;20331;-86
2022/09/11 09:12:04;;;;;;;3.55;3.25;;;15.60;99.90;;;;;;4984790;28;20068;-87
2022/09/11 09:14:48;;;;;;;3.97;3.38;;;15.70;99.90;;;;;;4977654;28;20027;-86
2022/09/11 09:17:40;;;;;;;4.90;4.07;;;15.70;99.90;;;;;;4998774;28;20023;-86
2022/09/11 09:20:21;;;;;;;4.05;3.15;;;15.80;99.90;;;;;;4978650;28;20117;-86
2022/09/11 09:23:14;;;;;;;5.50;3.60;;;16.10;99.90;;;;;;4981350;28;20033;-87
2022/09/11 09:25:41;;;;;;;4.35;3.30;;;16.20;99.90;;;;;;5010454;28;20494;-86
2022/09/11 09:28:30;;;;;;;4.10;3.70;;;16.10;99.90;;;;;;4984036;28;20058;-87
2022/09/11 09:30:58;;;;;;;5.07;3.33;;;16.20;99.90;;;;;;4979076;28;20042;-86
2022/09/11 09:33:51;;;;;;;3.63;2.60;;;16.20;99.90;;;;;;4981173;28;20018;-86
2022/09/11 09:36:21;;;;;;;3.78;3.15;;;16.20;99.90;;;;;;4984738;28;20049;-86
2022/09/11 09:38:48;;;;;;;4.43;3.05;;;16.20;99.90;;;;;;4979657;28;20030;-86
2022/09/11 09:41:25;;;;;;;4.35;3.47;;;16.30;99.90;;;;;;4984180;28;20065;-86
2022/09/11 09:44:21;;;;;;;4.47;2.85;;;16.40;99.90;;;;;;4982946;28;20072;-86
2022/09/11 09:46:51;;;;;;;4.43;3.33;;;16.60;99.90;;;;;;4983585;28;20030;-86
2022/09/11 09:49:36;;;;;;;5.80;3.33;;;16.60;99.90;;;;;;4981035;28;20406;-86
2022/09/11 09:52:15;;;;;;;5.15;3.40;;;16.50;99.90;;;;;;4982176;28;20081;-87
2022/09/11 09:54:42;;;;;;;4.50;3.40;;;16.60;99.90;;;;;;4983191;28;20146;-86
2022/09/11 09:57:10;;;;;;;2.50;2.30;;;16.60;99.90;;;;;;4989183;28;20037;-87
2022/09/11 10:00:00;;;;;;;3.85;2.80;;;16.60;99.90;;;;;;4977386;28;20110;-87
2022/09/11 10:02:56;;;;;;;3.08;2.58;;;16.60;99.90;;;;;;4983653;28;20097;-87
2022/09/11 10:05:32;;;;;;;1.83;1.73;;;16.90;99.90;;;;;;4980010;28;20057;-87
2022/09/11 10:08:03;;;;;;;4.10;2.20;;;16.90;99.90;;;;;;4971399;28;21929;-87
2022/09/11 10:10:37;;;;;;;2.55;2.33;;;16.70;99.90;;;;;;4968807;28;20494;-87
2022/09/11 10:13:24;;;;;;;3.65;2.80;;;16.70;99.90;;;;;;4963898;28;20137;-86
2022/09/11 10:15:52;;;;;;;2.75;2.08;;;16.70;99.90;;;;;;4968204;28;20034;-87
2022/09/11 10:18:31;;;;;;;;;;;16.60;99.90;;;;;;4964215;28;20044;-87
2022/09/11 10:21:14;;;;;;;5.22;2.50;;;16.60;99.90;;;;;;4976797;28;20024;-87
2022/09/11 10:23:53;;;;;;;2.80;2.58;;;16.80;99.90;;;;;;4963379;28;20124;-87
2022/09/11 10:26:28;;;;;;;2.78;2.50;;;16.90;99.90;;;;;;4979063;28;20482;-87
2022/09/11 10:28:59;;;;;;;4.30;2.33;;;17.00;99.90;;;;;;4983399;28;20100;-87
2022/09/11 10:31:25;;;;;;;2.88;2.67;;;17.10;99.90;;;;;;4967597;28;20452;-87
2022/09/11 10:33:58;;;;;;;4.25;2.22;;;17.00;99.90;;;;;;4963720;28;20033;-87
2022/09/11 10:36:26;;;;;;;4.20;2.42;;;17.10;99.90;;;;;;4969039;28;20030;-87
2022/09/11 10:38:53;;;;;;;2.60;2.40;;;17.10;99.90;;;;;;4966861;28;20058;-87
2022/09/11 10:41:24;;;;;;;3.25;2.33;;;17.10;99.90;;;;;;4966325;28;20127;-86
2022/09/11 10:44:01;;;;;;;2.40;2.25;;;17.10;99.90;;;;;;4965605;28;20037;-86
2022/09/11 10:46:36;;;;;;;2.42;2.22;;;17.10;99.90;;;;;;4966169;28;20053;-86
2022/09/11 10:49:02;;;;;;;1.83;1.73;;;17.20;99.90;;;;;;4968624;28;20301;-86
2022/09/11 10:51:31;;;;;;;3.22;2.22;;;17.30;99.90;;;;;;4968840;28;20042;-87
2022/09/11 10:54:21;;;;;;;2.95;2.05;;;17.30;99.90;;;;;;4969482;28;20121;-87
2022/09/11 10:56:59;;;;;;;2.38;2.17;;;17.30;99.90;;;;;;4966081;28;20509;-86
2022/09/11 10:59:49;;;;;;;2.10;2.00;;;17.40;99.90;;;;;;4980505;28;20792;-87
2022/09/11 11:02:39;;;;;;;2.10;2.00;;;17.50;99.90;;;;;;4968786;28;20039;-86
2022/09/11 11:05:27;;;;;;;2.80;1.90;;;17.50;99.90;;;;;;4963840;28;20818;-87
2022/09/11 11:07:56;;;;;;;;;;;17.50;99.90;;;;;;4950541;28;20042;-86
2022/09/11 11:10:54;;;;;;;1.85;1.73;;;17.50;99.90;;;;;;4979977;28;19917;-86
2022/09/11 11:13:44;;;;;;;2.30;2.10;;;17.50;99.90;;;;;;4981191;28;20042;-86
2022/09/11 11:16:41;;;;;;;2.22;1.98;;;17.60;99.90;;;;;;4963606;28;20030;-87
2022/09/11 11:19:34;;;;;;;2.35;2.20;;;17.70;99.90;;;;;;4973840;28;20473;-87
2022/09/11 11:22:00;;;;;;;2.28;2.15;;;17.70;99.90;;;;;;4970357;28;20105;-87
2022/09/11 11:24:45;;;;;;;2.20;2.00;;;17.80;99.90;;;;;;4967971;28;20019;-87
2022/09/11 11:27:26;;;;;;;2.10;1.90;;;17.90;99.90;;;;;;4973068;28;20030;-87
2022/09/11 11:30:10;;;;;;;2.47;2.20;;;17.90;99.90;;;;;;5007631;28;20399;-87
2022/09/11 11:32:47;;;;;;;2.80;2.60;;;18.00;99.90;;;;;;4965022;28;20045;-86
2022/09/11 11:35:43;;;;;;;2.72;2.53;;;18.00;99.90;;;;;;4975821;28;20027;-87
2022/09/11 11:38:19;;;;;;;2.35;2.15;;;18.00;99.90;;;;;;4973607;28;20049;-86
2022/09/11 11:40:56;;;;;;;3.38;2.20;;;18.00;99.90;;;;;;4971076;28;20037;-86
2022/09/11 11:43:27;;;;;;;2.97;2.67;;;18.10;99.90;;;;;;4972382;28;20027;-87
2022/09/11 11:46:03;;;;;;;2.50;2.30;;;18.20;99.90;;;;;;4974248;28;20058;-86
2022/09/11 11:52:11;;;;;;;2.40;2.20;;;18.50;99.90;;;;;;4998677;28;20096;-87
2022/09/11 11:55:05;;;;;;;5.10;2.50;;;18.60;99.90;;;;;;4984303;28;20034;-87
2022/09/11 11:57:41;;;;;;;2.60;2.40;;;18.60;99.90;;;;;;4968607;28;20038;-88
2022/09/11 12:00:13;;;;;;;2.10;2.00;;;18.60;99.90;;;;;;4989642;28;20045;-87
2022/09/11 12:02:52;;;;;;;2.47;2.28;;;18.60;99.90;;;;;;4971668;28;20046;-87
2022/09/11 12:05:31;;;;;;;3.30;2.20;;;18.60;99.90;;;;;;4978766;28;20027;-87
2022/09/11 12:07:57;;;;;;;8.48;2.70;;;18.70;99.90;;;;;;4977486;28;20043;-87
2022/09/11 12:10:36;;;;;;;2.25;2.05;;;18.80;99.90;;;;;;4975561;28;20026;-87
2022/09/11 12:13:11;;;;;;;2.50;2.30;;;18.90;99.90;;;;;;4974981;28;20038;-87
2022/09/11 12:15:37;;;;;;;2.50;2.10;;;18.90;99.90;;;;;;4973192;28;20445;-86
2022/09/11 12:18:15;;;;;;;1.90;1.80;;;19.00;99.90;;;;;;4980261;28;20022;-87
2022/09/11 12:20:41;;;;;;;;;;;19.10;99.90;;;;;;4990595;28;20034;-87
2022/09/11 12:23:27;;;;;;;2.53;2.17;;;19.10;99.90;;;;;;5008410;28;19937;-87
2022/09/11 12:26:22;;;;;;;2.50;2.30;;;19.00;99.90;;;;;;4973874;28;20105;-87
2022/09/11 12:29:10;;;;;;;2.28;2.08;;;18.80;99.90;;;;;;4975880;28;20058;-86
2022/09/11 12:31:48;;;;;;;2.67;1.88;;;18.60;99.90;;;;;;5005106;28;20038;-88
2022/09/11 12:34:23;;;;;;;2.13;1.85;;;18.70;99.90;;;;;;4994281;28;20093;-87
2022/09/11 12:37:01;;;;;;;2.15;2.05;;;18.60;97.50;;;;;;5010192;28;20509;-87
2022/09/11 12:39:39;;;;;;;4.43;2.45;;;18.70;99.90;;;;;;4983815;28;20034;-86
2022/09/11 12:42:24;;;;;;;2.78;2.03;;;18.80;98.70;;;;;;4979065;28;20040;-86
2022/09/11 12:44:49;;;;;;;2.03;1.90;;;18.70;99.00;;;;;;4981814;28;20110;-87
2022/09/11 12:47:24;;;;;;;2.42;1.70;;;18.50;95.90;;;;;;4984432;28;20060;-86
2022/09/11 12:50:04;;;;;;;3.42;2.60;;;18.50;99.90;;;;;;4974485;28;20034;-87
2022/09/11 12:53:01;;;;;;;2.30;2.10;;;18.60;99.90;;;;;;4975970;28;20053;-86
2022/09/11 12:55:33;;;;;;;1.88;1.77;;;18.60;99.90;;;;;;4982760;28;20034;-86
2022/09/11 12:58:02;;;;;;;2.08;1.95;;;18.50;99.90;;;;;;4973307;28;20030;-87
2022/09/11 13:00:43;;;;;;;2.90;2.10;;;18.50;99.90;;;;;;4976264;28;20049;-87
2022/09/11 13:03:24;;;;;;;2.22;2.10;;;18.40;99.90;;;;;;4977957;28;20030;-86
2022/09/11 13:06:06;;;;;;;2.50;2.30;;;18.40;99.90;;;;;;4977451;28;20026;-86
2022/09/11 13:08:39;;;;;;;2.60;2.40;;;18.40;99.90;;;;;;4977611;28;20114;-87
2022/09/11 13:11:39;;;;;;;2.20;2.00;;;18.40;99.90;;;;;;4975896;28;20034;-87
2022/09/11 13:14:27;;;;;;;2.15;2.05;;;18.30;99.60;;;;;;4976908;28;20035;-87
2022/09/11 13:17:01;;;;;;;2.30;2.10;;;18.30;99.90;;;;;;4993178;28;20057;-87
2022/09/11 13:19:36;;;;;;;2.60;2.40;;;18.40;99.90;;;;;;4980121;28;20054;-87